Lydick, Indiana
Current Conditions -  °F | °C
As of 5:07 AM on Saturday 22 Nov 2014 (Local Time) from KSBN Reporting Station
Light Rain Light Rain  
Wind Chill: 23°   Ceiling: 900
Heat Index: 33°   Visibility: 5mi
Dew Point: 30°   Wind: 15mph
Humidity: 89%   Direction: 200°SSW
Pressure: 30.14"   Gusts: NA
Location:  41.7216°N, 86.3352°W
Report Text: KSBN 221007Z AUTO 20013KT 5SM -RA BR OVC009 01/M01 A3014 RMK AO2 UPB0955E0957RAB0957 CIG 007V013 P0000 T00061011
Loading
Personal Weather Stations






























Interactive Weather Map New forecast layout! Learn more

10-Day Weather Forecast

Advertisements
Track Severe Weather on mobile